DFFD

Ouagadougou Airport

Ouagadougou, Burkina Faso
TAF DFFD 232300Z 2400/2506 24008KT CAVOK
Issued Valid From Valid To
Oct-23 @ 23:00 UTC
(6 hours ago)
Oct-24 @ 00:00 UTC
(5 hours ago)
Oct-25 @ 06:00 UTC
(-1 days ago)
Oct-24 @ 00:00 to Oct-25 @ 06:00
TAF DFFD 232300Z 2400/2506 24008KT CAVOK
Wind Visibility Clouds Conditions
240° at 8 knots 10,000+ meters
  • No significant clouds
TAF DFFD 232300Z 2400/2506 24008KT CAVOK
Issued Oct-23 @ 23:00 UTC
(6 hours ago)
Valid From Oct-24 @ 00:00 UTC
(5 hours ago)
Valid To Oct-25 @ 06:00 UTC
(-1 days ago)
Oct-24 @ 00:00 - Oct-25 @ 06:00
Wind Visibility
240° at 8 knots 10,000+ meters
Clouds
  • No significant clouds
Conditions